sensor_id;sensor_type;location;lat;lon;timestamp;P1;durP1;ratioP1;P2;durP2;ratioP2
56329;SDS011;42236;48.058;10.632;2023-02-01T00:01:10;4.43;;;3.33;;
56329;SDS011;42236;48.058;10.632;2023-02-01T00:03:56;4.83;;;3.20;;
56329;SDS011;42236;48.058;10.632;2023-02-01T00:06:42;4.67;;;3.27;;
56329;SDS011;42236;48.058;10.632;2023-02-01T00:09:27;4.93;;;2.43;;
56329;SDS011;42236;48.058;10.632;2023-02-01T00:12:13;8.03;;;4.17;;
56329;SDS011;42236;48.058;10.632;2023-02-01T00:14:58;7.37;;;4.00;;
56329;SDS011;42236;48.058;10.632;2023-02-01T00:17:44;4.67;;;3.30;;
56329;SDS011;42236;48.058;10.632;2023-02-01T00:20:30;5.07;;;2.90;;
56329;SDS011;42236;48.058;10.632;2023-02-01T00:23:15;4.77;;;3.43;;
56329;SDS011;42236;48.058;10.632;2023-02-01T00:26:02;5.50;;;3.87;;
56329;SDS011;42236;48.058;10.632;2023-02-01T00:28:50;4.63;;;2.83;;
56329;SDS011;42236;48.058;10.632;2023-02-01T00:31:36;3.73;;;2.63;;
56329;SDS011;42236;48.058;10.632;2023-02-01T00:34:22;4.57;;;3.03;;
56329;SDS011;42236;48.058;10.632;2023-02-01T00:37:08;3.83;;;2.83;;
56329;SDS011;42236;48.058;10.632;2023-02-01T00:39:54;7.07;;;3.73;;
56329;SDS011;42236;48.058;10.632;2023-02-01T00:42:41;6.07;;;3.37;;
56329;SDS011;42236;48.058;10.632;2023-02-01T00:45:26;8.13;;;4.13;;
56329;SDS011;42236;48.058;10.632;2023-02-01T00:48:12;4.27;;;3.13;;
56329;SDS011;42236;48.058;10.632;2023-02-01T00:51:01;3.37;;;3.03;;
56329;SDS011;42236;48.058;10.632;2023-02-01T00:53:52;4.80;;;3.80;;
56329;SDS011;42236;48.058;10.632;2023-02-01T00:56:38;2.60;;;2.03;;
56329;SDS011;42236;48.058;10.632;2023-02-01T00:59:24;6.90;;;3.87;;
56329;SDS011;42236;48.058;10.632;2023-02-01T01:02:09;5.40;;;3.57;;
56329;SDS011;42236;48.058;10.632;2023-02-01T01:04:57;4.53;;;2.97;;
56329;SDS011;42236;48.058;10.632;2023-02-01T01:07:43;6.37;;;4.30;;
56329;SDS011;42236;48.058;10.632;2023-02-01T01:10:29;6.07;;;3.77;;
56329;SDS011;42236;48.058;10.632;2023-02-01T01:13:14;6.97;;;3.27;;
56329;SDS011;42236;48.058;10.632;2023-02-01T01:16:01;6.43;;;3.67;;
56329;SDS011;42236;48.058;10.632;2023-02-01T01:18:48;5.80;;;3.53;;
56329;SDS011;42236;48.058;10.632;2023-02-01T01:21:33;5.53;;;3.17;;
56329;SDS011;42236;48.058;10.632;2023-02-01T01:24:19;5.87;;;3.37;;
56329;SDS011;42236;48.058;10.632;2023-02-01T01:27:05;4.90;;;2.93;;
56329;SDS011;42236;48.058;10.632;2023-02-01T01:29:50;4.87;;;3.33;;
56329;SDS011;42236;48.058;10.632;2023-02-01T01:32:36;3.40;;;3.07;;
56329;SDS011;42236;48.058;10.632;2023-02-01T01:35:21;6.47;;;3.60;;
56329;SDS011;42236;48.058;10.632;2023-02-01T01:38:08;5.13;;;3.83;;
56329;SDS011;42236;48.058;10.632;2023-02-01T01:40:55;3.77;;;3.30;;
56329;SDS011;42236;48.058;10.632;2023-02-01T01:46:48;5.50;;;3.60;;
56329;SDS011;42236;48.058;10.632;2023-02-01T01:49:33;5.43;;;3.43;;
56329;SDS011;42236;48.058;10.632;2023-02-01T01:52:19;4.40;;;3.57;;
56329;SDS011;42236;48.058;10.632;2023-02-01T01:55:05;3.77;;;2.53;;
56329;SDS011;42236;48.058;10.632;2023-02-01T01:57:55;4.43;;;2.80;;
56329;SDS011;42236;48.058;10.632;2023-02-01T02:00:44;6.37;;;3.47;;
56329;SDS011;42236;48.058;10.632;2023-02-01T02:03:36;4.20;;;2.80;;
56329;SDS011;42236;48.058;10.632;2023-02-01T02:06:31;4.33;;;3.23;;
56329;SDS011;42236;48.058;10.632;2023-02-01T02:09:17;3.87;;;2.53;;
56329;SDS011;42236;48.058;10.632;2023-02-01T02:12:03;1.83;;;1.70;;
56329;SDS011;42236;48.058;10.632;2023-02-01T02:14:49;3.80;;;2.77;;
56329;SDS011;42236;48.058;10.632;2023-02-01T02:21:13;3.90;;;2.83;;
56329;SDS011;42236;48.058;10.632;2023-02-01T02:27:36;5.27;;;2.83;;
56329;SDS011;42236;48.058;10.632;2023-02-01T02:36:37;6.60;;;3.23;;
56329;SDS011;42236;48.058;10.632;2023-02-01T02:39:46;2.67;;;2.40;;
56329;SDS011;42236;48.058;10.632;2023-02-01T02:46:25;4.27;;;2.77;;
56329;SDS011;42236;48.058;10.632;2023-02-01T02:49:42;3.57;;;2.47;;
56329;SDS011;42236;48.058;10.632;2023-02-01T02:52:58;3.47;;;2.30;;
56329;SDS011;42236;48.058;10.632;2023-02-01T02:56:07;4.53;;;2.17;;
56329;SDS011;42236;48.058;10.632;2023-02-01T02:59:14;3.50;;;2.47;;
56329;SDS011;42236;48.058;10.632;2023-02-01T03:02:24;5.67;;;2.20;;
56329;SDS011;42236;48.058;10.632;2023-02-01T03:05:32;4.47;;;2.97;;
56329;SDS011;42236;48.058;10.632;2023-02-01T03:08:26;3.67;;;2.80;;
56329;SDS011;42236;48.058;10.632;2023-02-01T03:11:13;1.30;;;1.20;;
56329;SDS011;42236;48.058;10.632;2023-02-01T03:14:00;6.73;;;2.57;;
56329;SDS011;42236;48.058;10.632;2023-02-01T03:16:52;4.50;;;2.73;;
56329;SDS011;42236;48.058;10.632;2023-02-01T03:19:45;2.40;;;1.83;;
56329;SDS011;42236;48.058;10.632;2023-02-01T03:22:35;3.40;;;2.27;;
56329;SDS011;42236;48.058;10.632;2023-02-01T03:25:23;4.83;;;2.50;;
56329;SDS011;42236;48.058;10.632;2023-02-01T03:28:12;6.50;;;2.43;;
56329;SDS011;42236;48.058;10.632;2023-02-01T03:31:01;3.43;;;2.30;;
56329;SDS011;42236;48.058;10.632;2023-02-01T03:33:47;2.63;;;2.07;;
56329;SDS011;42236;48.058;10.632;2023-02-01T03:36:35;2.63;;;2.03;;
56329;SDS011;42236;48.058;10.632;2023-02-01T03:42:28;2.37;;;2.00;;
56329;SDS011;42236;48.058;10.632;2023-02-01T03:45:22;5.80;;;2.77;;
56329;SDS011;42236;48.058;10.632;2023-02-01T03:48:13;4.97;;;2.43;;
56329;SDS011;42236;48.058;10.632;2023-02-01T03:51:00;4.10;;;2.60;;
56329;SDS011;42236;48.058;10.632;2023-02-01T03:53:49;3.10;;;2.57;;
56329;SDS011;42236;48.058;10.632;2023-02-01T03:56:39;3.40;;;2.13;;
56329;SDS011;42236;48.058;10.632;2023-02-01T03:59:29;3.33;;;2.47;;
56329;SDS011;42236;48.058;10.632;2023-02-01T04:02:15;3.90;;;2.70;;
56329;SDS011;42236;48.058;10.632;2023-02-01T04:05:01;3.27;;;2.47;;
56329;SDS011;42236;48.058;10.632;2023-02-01T04:07:47;5.17;;;2.67;;
56329;SDS011;42236;48.058;10.632;2023-02-01T04:10:32;3.63;;;2.70;;
56329;SDS011;42236;48.058;10.632;2023-02-01T04:13:18;2.87;;;2.50;;
56329;SDS011;42236;48.058;10.632;2023-02-01T04:16:04;2.90;;;2.23;;
56329;SDS011;42236;48.058;10.632;2023-02-01T04:18:50;4.00;;;2.60;;
56329;SDS011;42236;48.058;10.632;2023-02-01T04:21:35;2.90;;;2.60;;
56329;SDS011;42236;48.058;10.632;2023-02-01T04:24:21;4.43;;;3.20;;
56329;SDS011;42236;48.058;10.632;2023-02-01T04:27:07;6.23;;;2.60;;
56329;SDS011;42236;48.058;10.632;2023-02-01T04:29:52;4.50;;;3.00;;
56329;SDS011;42236;48.058;10.632;2023-02-01T04:32:38;4.20;;;3.13;;
56329;SDS011;42236;48.058;10.632;2023-02-01T04:35:25;3.30;;;2.83;;
56329;SDS011;42236;48.058;10.632;2023-02-01T04:38:10;5.23;;;2.77;;
56329;SDS011;42236;48.058;10.632;2023-02-01T04:40:56;4.20;;;2.37;;
56329;SDS011;42236;48.058;10.632;2023-02-01T04:43:41;4.80;;;3.17;;
56329;SDS011;42236;48.058;10.632;2023-02-01T04:46:27;3.50;;;2.47;;
56329;SDS011;42236;48.058;10.632;2023-02-01T04:49:13;5.87;;;2.43;;
56329;SDS011;42236;48.058;10.632;2023-02-01T04:51:59;5.10;;;2.93;;
56329;SDS011;42236;48.058;10.632;2023-02-01T04:54:45;3.60;;;2.37;;
56329;SDS011;42236;48.058;10.632;2023-02-01T04:57:30;3.47;;;2.50;;
56329;SDS011;42236;48.058;10.632;2023-02-01T05:00:16;4.33;;;3.20;;
56329;SDS011;42236;48.058;10.632;2023-02-01T05:03:02;5.70;;;2.57;;
56329;SDS011;42236;48.058;10.632;2023-02-01T05:05:48;4.70;;;2.80;;
56329;SDS011;42236;48.058;10.632;2023-02-01T05:08:34;3.33;;;2.80;;
56329;SDS011;42236;48.058;10.632;2023-02-01T05:11:19;5.93;;;3.50;;
56329;SDS011;42236;48.058;10.632;2023-02-01T05:14:23;6.03;;;3.83;;
56329;SDS011;42236;48.058;10.632;2023-02-01T05:17:09;7.10;;;3.13;;
56329;SDS011;42236;48.058;10.632;2023-02-01T05:19:55;5.33;;;3.27;;
56329;SDS011;42236;48.058;10.632;2023-02-01T05:22:41;7.13;;;3.40;;
56329;SDS011;42236;48.058;10.632;2023-02-01T05:25:27;4.77;;;3.10;;
56329;SDS011;42236;48.058;10.632;2023-02-01T05:28:13;7.20;;;3.30;;
56329;SDS011;42236;48.058;10.632;2023-02-01T05:30:58;7.97;;;3.97;;
56329;SDS011;42236;48.058;10.632;2023-02-01T05:33:44;7.83;;;2.50;;
56329;SDS011;42236;48.058;10.632;2023-02-01T05:36:30;5.63;;;3.03;;
56329;SDS011;42236;48.058;10.632;2023-02-01T05:39:16;6.03;;;2.93;;
56329;SDS011;42236;48.058;10.632;2023-02-01T05:42:01;6.90;;;3.70;;
56329;SDS011;42236;48.058;10.632;2023-02-01T05:44:47;6.13;;;3.30;;
56329;SDS011;42236;48.058;10.632;2023-02-01T05:47:33;5.53;;;3.37;;
56329;SDS011;42236;48.058;10.632;2023-02-01T05:50:18;5.10;;;2.90;;
56329;SDS011;42236;48.058;10.632;2023-02-01T05:53:04;6.00;;;3.37;;
56329;SDS011;42236;48.058;10.632;2023-02-01T05:55:50;6.07;;;3.03;;
56329;SDS011;42236;48.058;10.632;2023-02-01T05:58:35;5.77;;;3.77;;
56329;SDS011;42236;48.058;10.632;2023-02-01T06:01:21;3.27;;;2.77;;
56329;SDS011;42236;48.058;10.632;2023-02-01T06:04:07;6.37;;;3.30;;
56329;SDS011;42236;48.058;10.632;2023-02-01T06:06:52;4.93;;;3.50;;
56329;SDS011;42236;48.058;10.632;2023-02-01T06:09:38;6.17;;;3.03;;
56329;SDS011;42236;48.058;10.632;2023-02-01T06:12:24;5.47;;;3.70;;
56329;SDS011;42236;48.058;10.632;2023-02-01T06:15:09;5.33;;;2.63;;
56329;SDS011;42236;48.058;10.632;2023-02-01T06:17:56;6.40;;;3.53;;
56329;SDS011;42236;48.058;10.632;2023-02-01T06:20:42;5.33;;;2.90;;
56329;SDS011;42236;48.058;10.632;2023-02-01T06:23:28;4.40;;;2.40;;
56329;SDS011;42236;48.058;10.632;2023-02-01T06:26:15;4.73;;;3.03;;
56329;SDS011;42236;48.058;10.632;2023-02-01T06:29:03;5.10;;;3.43;;
56329;SDS011;42236;48.058;10.632;2023-02-01T06:31:48;4.90;;;3.20;;
56329;SDS011;42236;48.058;10.632;2023-02-01T06:34:34;4.93;;;3.20;;
56329;SDS011;42236;48.058;10.632;2023-02-01T06:37:20;5.47;;;3.10;;
56329;SDS011;42236;48.058;10.632;2023-02-01T06:40:05;4.40;;;3.10;;
56329;SDS011;42236;48.058;10.632;2023-02-01T06:42:51;4.27;;;3.43;;
56329;SDS011;42236;48.058;10.632;2023-02-01T06:45:37;4.77;;;2.67;;
56329;SDS011;42236;48.058;10.632;2023-02-01T06:48:23;3.90;;;2.83;;
56329;SDS011;42236;48.058;10.632;2023-02-01T06:51:19;5.20;;;2.73;;
56329;SDS011;42236;48.058;10.632;2023-02-01T06:54:06;2.90;;;2.00;;
56329;SDS011;42236;48.058;10.632;2023-02-01T06:56:52;7.40;;;3.77;;
56329;SDS011;42236;48.058;10.632;2023-02-01T06:59:38;5.93;;;2.90;;
56329;SDS011;42236;48.058;10.632;2023-02-01T07:02:23;4.40;;;2.60;;
56329;SDS011;42236;48.058;10.632;2023-02-01T07:05:09;4.60;;;2.87;;
56329;SDS011;42236;48.058;10.632;2023-02-01T07:07:55;5.80;;;2.97;;
56329;SDS011;42236;48.058;10.632;2023-02-01T07:10:40;4.07;;;2.63;;
56329;SDS011;42236;48.058;10.632;2023-02-01T07:13:26;4.40;;;2.47;;
56329;SDS011;42236;48.058;10.632;2023-02-01T07:16:13;5.27;;;3.03;;
56329;SDS011;42236;48.058;10.632;2023-02-01T07:19:01;6.37;;;2.83;;
56329;SDS011;42236;48.058;10.632;2023-02-01T07:21:47;5.37;;;2.83;;
56329;SDS011;42236;48.058;10.632;2023-02-01T07:24:33;4.77;;;2.83;;
56329;SDS011;42236;48.058;10.632;2023-02-01T07:27:19;4.97;;;2.30;;
56329;SDS011;42236;48.058;10.632;2023-02-01T07:30:05;5.10;;;3.00;;
56329;SDS011;42236;48.058;10.632;2023-02-01T07:32:52;3.87;;;3.03;;
56329;SDS011;42236;48.058;10.632;2023-02-01T07:35:37;4.63;;;3.13;;
56329;SDS011;42236;48.058;10.632;2023-02-01T07:38:23;4.03;;;2.57;;
56329;SDS011;42236;48.058;10.632;2023-02-01T07:41:09;3.77;;;2.50;;
56329;SDS011;42236;48.058;10.632;2023-02-01T07:43:55;4.10;;;2.53;;
56329;SDS011;42236;48.058;10.632;2023-02-01T07:46:41;3.50;;;2.00;;
56329;SDS011;42236;48.058;10.632;2023-02-01T07:49:28;5.20;;;2.50;;
56329;SDS011;42236;48.058;10.632;2023-02-01T07:52:14;3.80;;;2.90;;
56329;SDS011;42236;48.058;10.632;2023-02-01T07:55:02;3.23;;;2.23;;
56329;SDS011;42236;48.058;10.632;2023-02-01T07:57:48;4.13;;;2.27;;
56329;SDS011;42236;48.058;10.632;2023-02-01T08:00:34;3.33;;;2.43;;
56329;SDS011;42236;48.058;10.632;2023-02-01T08:03:38;2.73;;;2.23;;
56329;SDS011;42236;48.058;10.632;2023-02-01T08:06:24;3.23;;;2.30;;
56329;SDS011;42236;48.058;10.632;2023-02-01T08:09:10;5.03;;;2.37;;
56329;SDS011;42236;48.058;10.632;2023-02-01T08:11:56;3.17;;;2.27;;
56329;SDS011;42236;48.058;10.632;2023-02-01T08:14:42;2.87;;;1.93;;
56329;SDS011;42236;48.058;10.632;2023-02-01T08:17:27;3.73;;;2.30;;
56329;SDS011;42236;48.058;10.632;2023-02-01T08:20:13;2.87;;;2.00;;
56329;SDS011;42236;48.058;10.632;2023-02-01T08:22:59;3.30;;;1.90;;
56329;SDS011;42236;48.058;10.632;2023-02-01T08:25:45;2.53;;;1.87;;
56329;SDS011;42236;48.058;10.632;2023-02-01T08:28:31;3.27;;;2.40;;
56329;SDS011;42236;48.058;10.632;2023-02-01T08:31:19;3.63;;;2.33;;
56329;SDS011;42236;48.058;10.632;2023-02-01T08:34:07;6.07;;;2.53;;
56329;SDS011;42236;48.058;10.632;2023-02-01T08:36:54;2.93;;;2.40;;
56329;SDS011;42236;48.058;10.632;2023-02-01T08:39:45;4.70;;;2.10;;
56329;SDS011;42236;48.058;10.632;2023-02-01T08:42:32;7.27;;;1.63;;
56329;SDS011;42236;48.058;10.632;2023-02-01T08:45:36;3.17;;;2.00;;
56329;SDS011;42236;48.058;10.632;2023-02-01T08:48:22;2.03;;;1.73;;
56329;SDS011;42236;48.058;10.632;2023-02-01T08:51:09;3.43;;;2.10;;
56329;SDS011;42236;48.058;10.632;2023-02-01T08:53:57;2.33;;;1.70;;
56329;SDS011;42236;48.058;10.632;2023-02-01T08:56:42;3.17;;;2.00;;
56329;SDS011;42236;48.058;10.632;2023-02-01T08:59:28;2.37;;;1.60;;
56329;SDS011;42236;48.058;10.632;2023-02-01T09:02:14;5.13;;;2.17;;
56329;SDS011;42236;48.058;10.632;2023-02-01T09:05:01;2.23;;;1.87;;
56329;SDS011;42236;48.058;10.632;2023-02-01T09:07:46;3.33;;;1.40;;
56329;SDS011;42236;48.058;10.632;2023-02-01T09:10:32;2.83;;;1.73;;
56329;SDS011;42236;48.058;10.632;2023-02-01T09:13:18;1.73;;;1.50;;
56329;SDS011;42236;48.058;10.632;2023-02-01T09:16:05;4.10;;;2.10;;
56329;SDS011;42236;48.058;10.632;2023-02-01T09:18:51;2.70;;;1.80;;
56329;SDS011;42236;48.058;10.632;2023-02-01T09:21:36;2.30;;;1.53;;
56329;SDS011;42236;48.058;10.632;2023-02-01T09:24:22;1.13;;;1.03;;
56329;SDS011;42236;48.058;10.632;2023-02-01T09:27:08;2.60;;;1.83;;
56329;SDS011;42236;48.058;10.632;2023-02-01T09:29:53;2.23;;;1.77;;
56329;SDS011;42236;48.058;10.632;2023-02-01T09:32:39;3.07;;;1.83;;
56329;SDS011;42236;48.058;10.632;2023-02-01T09:35:25;2.60;;;2.00;;
56329;SDS011;42236;48.058;10.632;2023-02-01T09:38:10;3.13;;;1.50;;
56329;SDS011;42236;48.058;10.632;2023-02-01T09:40:57;1.67;;;1.57;;
56329;SDS011;42236;48.058;10.632;2023-02-01T09:43:53;3.70;;;1.90;;
56329;SDS011;42236;48.058;10.632;2023-02-01T09:46:45;4.40;;;1.70;;
56329;SDS011;42236;48.058;10.632;2023-02-01T09:49:32;3.50;;;1.73;;
56329;SDS011;42236;48.058;10.632;2023-02-01T09:52:45;2.80;;;1.73;;
56329;SDS011;42236;48.058;10.632;2023-02-01T09:55:39;2.40;;;1.57;;
56329;SDS011;42236;48.058;10.632;2023-02-01T10:01:40;3.30;;;1.90;;
56329;SDS011;42236;48.058;10.632;2023-02-01T10:04:28;4.17;;;1.70;;
56329;SDS011;42236;48.058;10.632;2023-02-01T10:10:32;2.63;;;1.40;;
56329;SDS011;42236;48.058;10.632;2023-02-01T10:16:31;7.33;;;2.30;;
56329;SDS011;42236;48.058;10.632;2023-02-01T10:19:27;3.77;;;2.03;;
56329;SDS011;42236;48.058;10.632;2023-02-01T10:22:42;5.07;;;1.70;;
56329;SDS011;42236;48.058;10.632;2023-02-01T10:28:36;2.20;;;1.70;;
56329;SDS011;42236;48.058;10.632;2023-02-01T10:31:32;2.93;;;1.90;;
56329;SDS011;42236;48.058;10.632;2023-02-01T10:34:24;2.73;;;1.80;;
56329;SDS011;42236;48.058;10.632;2023-02-01T10:37:17;1.57;;;1.30;;
56329;SDS011;42236;48.058;10.632;2023-02-01T10:40:19;2.93;;;1.97;;
56329;SDS011;42236;48.058;10.632;2023-02-01T10:43:07;5.17;;;1.83;;
56329;SDS011;42236;48.058;10.632;2023-02-01T10:45:55;4.07;;;1.60;;
56329;SDS011;42236;48.058;10.632;2023-02-01T10:48:40;3.13;;;1.97;;
56329;SDS011;42236;48.058;10.632;2023-02-01T10:51:28;3.43;;;1.90;;
56329;SDS011;42236;48.058;10.632;2023-02-01T10:54:36;2.60;;;2.13;;
56329;SDS011;42236;48.058;10.632;2023-02-01T10:57:26;1.47;;;1.07;;
56329;SDS011;42236;48.058;10.632;2023-02-01T11:00:21;2.77;;;1.97;;
56329;SDS011;42236;48.058;10.632;2023-02-01T11:06:34;1.83;;;1.10;;
56329;SDS011;42236;48.058;10.632;2023-02-01T11:09:22;3.10;;;1.80;;
56329;SDS011;42236;48.058;10.632;2023-02-01T11:12:23;2.07;;;1.27;;
56329;SDS011;42236;48.058;10.632;2023-02-01T11:15:23;1.73;;;1.37;;
56329;SDS011;42236;48.058;10.632;2023-02-01T11:18:17;2.00;;;1.20;;
56329;SDS011;42236;48.058;10.632;2023-02-01T11:21:05;2.27;;;1.33;;
56329;SDS011;42236;48.058;10.632;2023-02-01T11:23:52;1.70;;;1.47;;
56329;SDS011;42236;48.058;10.632;2023-02-01T11:26:39;2.80;;;1.67;;
56329;SDS011;42236;48.058;10.632;2023-02-01T11:29:26;5.27;;;1.50;;
56329;SDS011;42236;48.058;10.632;2023-02-01T11:32:20;1.20;;;1.10;;
56329;SDS011;42236;48.058;10.632;2023-02-01T11:35:11;3.23;;;1.80;;
56329;SDS011;42236;48.058;10.632;2023-02-01T11:38:09;1.90;;;1.70;;
56329;SDS011;42236;48.058;10.632;2023-02-01T11:41:12;1.23;;;0.97;;
56329;SDS011;42236;48.058;10.632;2023-02-01T11:44:00;5.03;;;1.30;;
56329;SDS011;42236;48.058;10.632;2023-02-01T11:50:14;2.90;;;1.90;;
56329;SDS011;42236;48.058;10.632;2023-02-01T11:56:33;5.17;;;1.57;;
56329;SDS011;42236;48.058;10.632;2023-02-01T12:05:52;1.03;;;0.87;;
56329;SDS011;42236;48.058;10.632;2023-02-01T12:19:18;2.03;;;1.53;;
56329;SDS011;42236;48.058;10.632;2023-02-01T12:34:22;2.07;;;1.37;;
56329;SDS011;42236;48.058;10.632;2023-02-01T12:43:16;2.03;;;1.00;;
56329;SDS011;42236;48.058;10.632;2023-02-01T12:46:14;2.27;;;1.50;;
56329;SDS011;42236;48.058;10.632;2023-02-01T12:49:19;1.57;;;1.07;;
56329;SDS011;42236;48.058;10.632;2023-02-01T12:52:30;1.70;;;1.30;;
56329;SDS011;42236;48.058;10.632;2023-02-01T12:58:14;1.90;;;1.27;;
56329;SDS011;42236;48.058;10.632;2023-02-01T13:01:19;1.93;;;1.00;;
56329;SDS011;42236;48.058;10.632;2023-02-01T13:07:07;1.37;;;1.20;;
56329;SDS011;42236;48.058;10.632;2023-02-01T13:18:49;2.37;;;0.83;;
56329;SDS011;42236;48.058;10.632;2023-02-01T13:21:39;1.33;;;0.90;;
56329;SDS011;42236;48.058;10.632;2023-02-01T13:24:48;2.03;;;0.83;;
56329;SDS011;42236;48.058;10.632;2023-02-01T13:27:37;3.03;;;1.43;;
56329;SDS011;42236;48.058;10.632;2023-02-01T13:30:25;2.40;;;1.30;;
56329;SDS011;42236;48.058;10.632;2023-02-01T13:39:34;2.90;;;0.90;;
56329;SDS011;42236;48.058;10.632;2023-02-01T13:42:48;1.80;;;0.90;;
56329;SDS011;42236;48.058;10.632;2023-02-01T13:45:47;1.83;;;0.80;;
56329;SDS011;42236;48.058;10.632;2023-02-01T13:48:38;0.73;;;0.73;;
56329;SDS011;42236;48.058;10.632;2023-02-01T13:51:33;3.87;;;1.50;;
56329;SDS011;42236;48.058;10.632;2023-02-01T13:54:32;0.80;;;0.80;;
56329;SDS011;42236;48.058;10.632;2023-02-01T13:57:37;1.23;;;1.13;;
56329;SDS011;42236;48.058;10.632;2023-02-01T14:00:32;1.93;;;1.17;;
56329;SDS011;42236;48.058;10.632;2023-02-01T14:03:22;2.60;;;1.10;;
56329;SDS011;42236;48.058;10.632;2023-02-01T14:09:18;1.37;;;0.97;;
56329;SDS011;42236;48.058;10.632;2023-02-01T14:15:29;2.53;;;1.53;;
56329;SDS011;42236;48.058;10.632;2023-02-01T14:21:20;1.30;;;1.00;;
56329;SDS011;42236;48.058;10.632;2023-02-01T14:26:57;1.30;;;1.13;;
56329;SDS011;42236;48.058;10.632;2023-02-01T14:29:50;1.53;;;0.90;;
56329;SDS011;42236;48.058;10.632;2023-02-01T14:32:43;1.50;;;0.63;;
56329;SDS011;42236;48.058;10.632;2023-02-01T14:35:31;0.90;;;0.70;;
56329;SDS011;42236;48.058;10.632;2023-02-01T14:38:17;1.47;;;1.00;;
56329;SDS011;42236;48.058;10.632;2023-02-01T14:41:26;1.57;;;1.30;;
56329;SDS011;42236;48.058;10.632;2023-02-01T14:44:22;1.00;;;1.00;;
56329;SDS011;42236;48.058;10.632;2023-02-01T14:58:57;0.70;;;0.70;;
56329;SDS011;42236;48.058;10.632;2023-02-01T15:01:50;0.80;;;0.53;;
56329;SDS011;42236;48.058;10.632;2023-02-01T15:04:41;4.93;;;0.77;;
56329;SDS011;42236;48.058;10.632;2023-02-01T15:07:28;0.73;;;0.70;;
56329;SDS011;42236;48.058;10.632;2023-02-01T15:10:14;1.13;;;0.63;;
56329;SDS011;42236;48.058;10.632;2023-02-01T15:13:00;0.80;;;0.60;;
56329;SDS011;42236;48.058;10.632;2023-02-01T15:15:59;0.83;;;0.60;;
56329;SDS011;42236;48.058;10.632;2023-02-01T15:18:45;2.17;;;0.60;;
56329;SDS011;42236;48.058;10.632;2023-02-01T15:21:31;2.10;;;0.90;;
56329;SDS011;42236;48.058;10.632;2023-02-01T15:24:28;2.33;;;0.70;;
56329;SDS011;42236;48.058;10.632;2023-02-01T15:27:15;2.70;;;0.80;;
56329;SDS011;42236;48.058;10.632;2023-02-01T15:30:06;3.40;;;1.40;;
56329;SDS011;42236;48.058;10.632;2023-02-01T15:33:06;0.83;;;0.70;;
56329;SDS011;42236;48.058;10.632;2023-02-01T15:42:11;4.53;;;1.23;;
56329;SDS011;42236;48.058;10.632;2023-02-01T15:45:04;2.40;;;0.70;;
56329;SDS011;42236;48.058;10.632;2023-02-01T15:47:50;1.83;;;1.07;;
56329;SDS011;42236;48.058;10.632;2023-02-01T15:50:38;2.80;;;1.07;;
56329;SDS011;42236;48.058;10.632;2023-02-01T15:53:25;4.80;;;1.40;;
56329;SDS011;42236;48.058;10.632;2023-02-01T15:56:16;2.20;;;1.30;;
56329;SDS011;42236;48.058;10.632;2023-02-01T15:59:15;1.93;;;0.90;;
56329;SDS011;42236;48.058;10.632;2023-02-01T16:02:02;4.47;;;1.10;;
56329;SDS011;42236;48.058;10.632;2023-02-01T16:04:48;4.23;;;1.83;;
56329;SDS011;42236;48.058;10.632;2023-02-01T16:07:36;2.43;;;1.07;;
56329;SDS011;42236;48.058;10.632;2023-02-01T16:10:26;2.77;;;1.00;;
56329;SDS011;42236;48.058;10.632;2023-02-01T16:13:13;3.43;;;0.90;;
56329;SDS011;42236;48.058;10.632;2023-02-01T16:15:59;3.17;;;1.20;;
56329;SDS011;42236;48.058;10.632;2023-02-01T16:18:45;2.47;;;1.23;;
56329;SDS011;42236;48.058;10.632;2023-02-01T16:21:31;2.70;;;1.00;;
56329;SDS011;42236;48.058;10.632;2023-02-01T16:24:16;9.33;;;1.30;;
56329;SDS011;42236;48.058;10.632;2023-02-01T16:27:02;4.10;;;1.10;;
56329;SDS011;42236;48.058;10.632;2023-02-01T16:29:48;4.27;;;1.20;;
56329;SDS011;42236;48.058;10.632;2023-02-01T16:32:35;2.23;;;1.00;;
56329;SDS011;42236;48.058;10.632;2023-02-01T16:35:31;1.57;;;0.80;;
56329;SDS011;42236;48.058;10.632;2023-02-01T16:38:21;4.27;;;1.27;;
56329;SDS011;42236;48.058;10.632;2023-02-01T16:41:14;1.10;;;0.80;;
56329;SDS011;42236;48.058;10.632;2023-02-01T16:44:03;5.80;;;1.23;;
56329;SDS011;42236;48.058;10.632;2023-02-01T16:46:48;6.07;;;2.13;;
56329;SDS011;42236;48.058;10.632;2023-02-01T16:49:34;2.77;;;1.00;;
56329;SDS011;42236;48.058;10.632;2023-02-01T16:52:24;6.73;;;0.93;;
56329;SDS011;42236;48.058;10.632;2023-02-01T16:55:15;2.30;;;0.90;;
56329;SDS011;42236;48.058;10.632;2023-02-01T16:58:02;4.10;;;1.00;;
56329;SDS011;42236;48.058;10.632;2023-02-01T17:00:48;2.30;;;0.90;;
56329;SDS011;42236;48.058;10.632;2023-02-01T17:03:34;7.30;;;1.00;;
56329;SDS011;42236;48.058;10.632;2023-02-01T17:06:21;3.87;;;1.20;;
56329;SDS011;42236;48.058;10.632;2023-02-01T17:09:09;1.40;;;1.00;;
56329;SDS011;42236;48.058;10.632;2023-02-01T17:11:55;5.77;;;1.30;;
56329;SDS011;42236;48.058;10.632;2023-02-01T17:14:40;2.80;;;0.90;;
56329;SDS011;42236;48.058;10.632;2023-02-01T17:17:29;4.37;;;0.90;;
56329;SDS011;42236;48.058;10.632;2023-02-01T17:20:19;3.40;;;0.80;;
56329;SDS011;42236;48.058;10.632;2023-02-01T17:23:07;7.23;;;1.10;;
56329;SDS011;42236;48.058;10.632;2023-02-01T17:25:52;4.10;;;1.20;;
56329;SDS011;42236;48.058;10.632;2023-02-01T17:28:38;4.20;;;1.10;;
56329;SDS011;42236;48.058;10.632;2023-02-01T17:31:24;5.10;;;1.20;;
56329;SDS011;42236;48.058;10.632;2023-02-01T17:34:10;4.63;;;1.10;;
56329;SDS011;42236;48.058;10.632;2023-02-01T17:36:59;2.77;;;0.80;;
56329;SDS011;42236;48.058;10.632;2023-02-01T17:39:45;4.83;;;1.07;;
56329;SDS011;42236;48.058;10.632;2023-02-01T17:42:40;6.90;;;1.10;;
56329;SDS011;42236;48.058;10.632;2023-02-01T17:45:33;5.87;;;0.90;;
56329;SDS011;42236;48.058;10.632;2023-02-01T17:48:21;2.20;;;0.87;;
56329;SDS011;42236;48.058;10.632;2023-02-01T17:51:17;6.60;;;1.17;;
56329;SDS011;42236;48.058;10.632;2023-02-01T17:54:05;3.73;;;1.17;;
56329;SDS011;42236;48.058;10.632;2023-02-01T17:56:50;7.53;;;2.40;;
56329;SDS011;42236;48.058;10.632;2023-02-01T17:59:36;5.10;;;1.20;;
56329;SDS011;42236;48.058;10.632;2023-02-01T18:02:22;7.87;;;1.27;;
56329;SDS011;42236;48.058;10.632;2023-02-01T18:05:17;3.93;;;0.90;;
56329;SDS011;42236;48.058;10.632;2023-02-01T18:08:04;3.67;;;1.73;;
56329;SDS011;42236;48.058;10.632;2023-02-01T18:10:51;2.27;;;1.00;;
56329;SDS011;42236;48.058;10.632;2023-02-01T18:13:39;6.40;;;1.10;;
56329;SDS011;42236;48.058;10.632;2023-02-01T18:16:26;6.40;;;1.10;;
56329;SDS011;42236;48.058;10.632;2023-02-01T18:19:13;5.20;;;1.00;;
56329;SDS011;42236;48.058;10.632;2023-02-01T18:21:59;5.57;;;1.00;;
56329;SDS011;42236;48.058;10.632;2023-02-01T18:24:46;3.33;;;1.10;;
56329;SDS011;42236;48.058;10.632;2023-02-01T18:27:32;3.07;;;1.30;;
56329;SDS011;42236;48.058;10.632;2023-02-01T18:30:18;3.40;;;1.53;;
56329;SDS011;42236;48.058;10.632;2023-02-01T18:33:06;5.37;;;0.90;;
56329;SDS011;42236;48.058;10.632;2023-02-01T18:35:55;3.77;;;1.10;;
56329;SDS011;42236;48.058;10.632;2023-02-01T18:38:41;5.83;;;1.17;;
56329;SDS011;42236;48.058;10.632;2023-02-01T18:41:26;4.20;;;1.20;;
56329;SDS011;42236;48.058;10.632;2023-02-01T18:44:12;9.83;;;1.33;;
56329;SDS011;42236;48.058;10.632;2023-02-01T18:47:02;7.40;;;1.10;;
56329;SDS011;42236;48.058;10.632;2023-02-01T18:49:47;4.67;;;1.40;;
56329;SDS011;42236;48.058;10.632;2023-02-01T18:52:33;6.93;;;1.60;;
56329;SDS011;42236;48.058;10.632;2023-02-01T18:55:19;3.47;;;1.17;;